createdAt,value
2023-05-04T00:02:09.664Z,100321.66
2023-05-04T00:04:36.859Z,100316.25
2023-05-04T00:07:04.096Z,100326.78
2023-05-04T00:09:32.366Z,100318.84
2023-05-04T00:12:00.216Z,100324.13
2023-05-04T00:14:27.714Z,100323.28
2023-05-04T00:16:55.032Z,100329.47
2023-05-04T00:19:22.952Z,100330.38
2023-05-04T00:21:50.479Z,100332.22
2023-05-04T00:24:17.673Z,100330.56
2023-05-04T00:26:46.045Z,100331.50
2023-05-04T00:29:13.506Z,100331.56
2023-05-04T00:31:41.155Z,100336.00
2023-05-04T00:34:09.073Z,100336.00
2023-05-04T00:36:36.667Z,100337.78
2023-05-04T00:39:04.311Z,100336.03
2023-05-04T00:41:31.562Z,100325.50
2023-05-04T00:44:02.890Z,100319.31
2023-05-04T00:46:31.383Z,100322.94
2023-05-04T00:49:00.116Z,100322.28
2023-05-04T00:51:27.428Z,100325.69
2023-05-04T00:53:56.183Z,100323.88
2023-05-04T00:56:25.166Z,100325.59
2023-05-04T00:58:58.945Z,100317.75
2023-05-04T01:01:27.559Z,100322.94
2023-05-04T01:03:57.850Z,100309.66
2023-05-04T01:07:06.373Z,100307.91
2023-05-04T01:09:46.614Z,100308.56
2023-05-04T01:12:23.795Z,100299.66
2023-05-04T01:14:54.432Z,100304.03
2023-05-04T01:17:22.525Z,100302.94
2023-05-04T01:19:51.307Z,100300.28
2023-05-04T01:22:18.538Z,100290.69
2023-05-04T01:24:46.978Z,100295.00
2023-05-04T01:27:28.605Z,100281.72
2023-05-04T01:30:14.295Z,100289.38
2023-05-04T01:32:45.931Z,100288.56
2023-05-04T01:35:14.428Z,100296.38
2023-05-04T01:37:42.183Z,100290.28
2023-05-04T01:40:10.223Z,100284.25
2023-05-04T01:42:38.023Z,100283.16
2023-05-04T01:45:06.429Z,100284.00
2023-05-04T01:47:33.923Z,100281.22
2023-05-04T01:50:01.915Z,100283.00
2023-05-04T01:52:31.011Z,100292.78
2023-05-04T01:54:58.363Z,100286.66
2023-05-04T01:57:26.061Z,100287.66
2023-05-04T01:59:53.541Z,100288.44
2023-05-04T02:02:21.173Z,100291.22
2023-05-04T02:04:48.339Z,100286.59
2023-05-04T02:07:15.693Z,100286.66
2023-05-04T02:09:43.989Z,100282.16
2023-05-04T02:12:11.422Z,100274.28
2023-05-04T02:14:39.488Z,100273.00
2023-05-04T02:17:07.975Z,100270.31
2023-05-04T02:19:37.980Z,100268.53
2023-05-04T02:22:05.922Z,100265.22
2023-05-04T02:24:36.284Z,100253.19
2023-05-04T02:27:03.729Z,100239.94
2023-05-04T02:29:31.238Z,100249.63
2023-05-04T02:31:59.858Z,100243.13
2023-05-04T02:34:27.847Z,100244.00
2023-05-04T02:36:55.214Z,100247.47
2023-05-04T02:39:23.154Z,100247.25
2023-05-04T02:41:50.988Z,100247.97
2023-05-04T02:44:20.857Z,100258.84
2023-05-04T02:46:48.425Z,100263.03
2023-05-04T02:49:16.028Z,100264.06
2023-05-04T02:51:43.398Z,100266.75
2023-05-04T02:54:13.543Z,100273.47
2023-05-04T02:56:45.431Z,100272.44
2023-05-04T02:59:13.672Z,100268.59
2023-05-04T03:01:41.122Z,100265.09
2023-05-04T03:04:08.759Z,100258.88
2023-05-04T03:06:36.658Z,100251.84
2023-05-04T03:09:04.964Z,100253.34
2023-05-04T03:11:32.533Z,100257.38
2023-05-04T03:14:00.040Z,100247.47
2023-05-04T03:16:28.379Z,100259.50
2023-05-04T03:18:58.919Z,100261.06
2023-05-04T03:21:26.832Z,100261.78
2023-05-04T03:23:54.383Z,100262.31
2023-05-04T03:26:21.827Z,100278.03
2023-05-04T03:28:50.448Z,100269.72
2023-05-04T03:31:18.023Z,100256.28
2023-05-04T03:33:48.623Z,100253.16
2023-05-04T03:36:16.419Z,100256.41
2023-05-04T03:38:44.374Z,100259.75
2023-05-04T03:41:11.723Z,100247.91
2023-05-04T03:43:40.214Z,100261.19
2023-05-04T03:46:07.543Z,100268.25
2023-05-04T03:48:35.290Z,100280.03
2023-05-04T03:51:03.350Z,100271.59
2023-05-04T03:53:30.924Z,100269.69
2023-05-04T03:55:58.225Z,100263.53
2023-05-04T03:58:25.523Z,100258.75
2023-05-04T04:00:53.507Z,100266.47
2023-05-04T04:03:21.901Z,100262.31
2023-05-04T04:05:51.187Z,100256.56
2023-05-04T04:08:18.923Z,100251.72
2023-05-04T04:10:46.858Z,100248.94
2023-05-04T04:13:14.302Z,100259.66
2023-05-04T04:15:45.225Z,100255.94
2023-05-04T04:18:13.233Z,100254.97
2023-05-04T04:20:40.792Z,100257.75
2023-05-04T04:23:08.617Z,100255.34
2023-05-04T04:25:37.045Z,100261.84
2023-05-04T04:28:04.631Z,100254.03
2023-05-04T04:30:35.303Z,100258.00
2023-05-04T04:33:03.840Z,100265.59
2023-05-04T04:35:33.364Z,100274.22
2023-05-04T04:38:03.358Z,100274.75
2023-05-04T04:40:31.802Z,100274.53
2023-05-04T04:43:00.078Z,100269.16
2023-05-04T04:45:28.486Z,100272.66
2023-05-04T04:47:55.760Z,100280.16
2023-05-04T04:50:23.495Z,100275.50
2023-05-04T04:52:51.250Z,100273.09
2023-05-04T04:55:19.204Z,100271.88
2023-05-04T04:57:46.668Z,100271.34
2023-05-04T05:00:15.079Z,100267.88
2023-05-04T05:02:43.275Z,100275.19
2023-05-04T05:05:11.576Z,100279.25
2023-05-04T05:07:39.040Z,100276.56
2023-05-04T05:12:37.002Z,100270.66
2023-05-04T05:15:05.173Z,100263.94
2023-05-04T05:17:32.613Z,100271.16
2023-05-04T05:20:01.622Z,100268.41
2023-05-04T05:22:29.194Z,100270.38
2023-05-04T05:24:57.157Z,100265.25
2023-05-04T05:27:25.021Z,100261.31
2023-05-04T05:29:52.516Z,100264.94
2023-05-04T05:32:20.346Z,100272.72
2023-05-04T05:34:48.908Z,100268.47
2023-05-04T05:37:16.655Z,100262.91
2023-05-04T05:39:44.638Z,100259.59
2023-05-04T05:42:13.028Z,100255.09
2023-05-04T05:44:41.264Z,100252.44
2023-05-04T05:47:09.838Z,100241.56
2023-05-04T05:49:37.359Z,100236.03
2023-05-04T05:52:05.135Z,100240.78
2023-05-04T05:54:34.885Z,100245.72
2023-05-04T05:57:02.890Z,100245.09
2023-05-04T05:59:30.864Z,100246.56
2023-05-04T06:01:58.284Z,100250.78
2023-05-04T06:04:26.240Z,100245.44
2023-05-04T06:06:53.661Z,100240.03
2023-05-04T06:09:21.856Z,100239.44
2023-05-04T06:11:49.152Z,100244.22
2023-05-04T06:14:16.821Z,100242.72
2023-05-04T06:16:44.615Z,100244.22
2023-05-04T06:19:12.149Z,100237.19
2023-05-04T06:21:39.517Z,100248.53
2023-05-04T06:24:07.305Z,100241.19
2023-05-04T06:26:34.715Z,100241.50
2023-05-04T06:29:02.261Z,100231.13
2023-05-04T06:31:29.540Z,100238.19
2023-05-04T06:33:58.146Z,100238.88
2023-05-04T06:36:26.272Z,100229.31
2023-05-04T06:38:55.982Z,100227.38
2023-05-04T06:41:23.455Z,100217.88
2023-05-04T06:43:51.356Z,100212.81
2023-05-04T06:46:18.864Z,100222.94
2023-05-04T06:48:47.531Z,100217.03
2023-05-04T06:51:16.389Z,100222.69
2023-05-04T06:53:45.309Z,100221.38
2023-05-04T06:56:13.802Z,100214.66
2023-05-04T06:58:41.341Z,100220.28
2023-05-04T07:01:11.778Z,100226.66
2023-05-04T07:03:39.446Z,100222.63
2023-05-04T07:06:08.380Z,100212.88
2023-05-04T07:08:40.748Z,100215.59
2023-05-04T07:11:09.703Z,100215.13
2023-05-04T07:13:37.842Z,100215.50
2023-05-04T07:16:07.936Z,100215.28
2023-05-04T07:18:35.242Z,100222.00
2023-05-04T07:21:21.738Z,100229.81
2023-05-04T07:23:50.838Z,100230.66
2023-05-04T07:26:18.748Z,100233.88
2023-05-04T07:28:47.368Z,100238.09
2023-05-04T07:31:16.252Z,100229.19
2023-05-04T07:33:44.007Z,100239.81
2023-05-04T07:36:12.271Z,100240.81
2023-05-04T07:38:40.259Z,100240.97
2023-05-04T07:41:07.662Z,100236.31
2023-05-04T07:43:34.974Z,100247.38
2023-05-04T07:46:03.793Z,100247.84
2023-05-04T07:48:31.464Z,100241.78
2023-05-04T07:50:59.707Z,100237.91
2023-05-04T07:53:27.773Z,100231.75
2023-05-04T07:55:57.703Z,100221.69
2023-05-04T07:58:25.740Z,100214.53
2023-05-04T08:00:53.858Z,100207.84
2023-05-04T08:03:22.460Z,100212.19
2023-05-04T08:05:50.162Z,100220.28
2023-05-04T08:08:21.821Z,100220.03
2023-05-04T08:10:49.660Z,100219.25
2023-05-04T08:13:17.380Z,100218.66
2023-05-04T08:15:46.131Z,100207.84
2023-05-04T08:18:15.820Z,100207.38
2023-05-04T08:20:44.057Z,100208.50
2023-05-04T08:23:11.757Z,100201.66
2023-05-04T08:25:39.574Z,100201.63
2023-05-04T08:28:07.246Z,100206.81
2023-05-04T08:30:35.115Z,100197.38
2023-05-04T08:33:03.086Z,100204.06
2023-05-04T08:35:31.132Z,100196.00
2023-05-04T08:37:58.445Z,100197.50
2023-05-04T08:40:26.216Z,100190.66
2023-05-04T08:42:53.821Z,100192.25
2023-05-04T08:45:23.156Z,100198.63
2023-05-04T08:47:51.912Z,100185.25
2023-05-04T08:50:19.909Z,100181.63
2023-05-04T08:52:49.201Z,100184.75
2023-05-04T08:55:18.073Z,100181.09
2023-05-04T08:57:51.863Z,100191.56
2023-05-04T09:00:20.630Z,100187.34
2023-05-04T09:02:50.143Z,100186.88
2023-05-04T09:05:18.752Z,100182.72
2023-05-04T09:07:47.765Z,100183.31
2023-05-04T09:10:15.245Z,100185.00
2023-05-04T09:12:43.010Z,100175.19
2023-05-04T09:15:21.756Z,100168.53
2023-05-04T09:17:59.892Z,100173.00
2023-05-04T09:20:27.738Z,100167.00
2023-05-04T09:23:07.553Z,100171.88
2023-05-04T09:25:47.978Z,100164.34
2023-05-04T09:28:16.792Z,100159.94
2023-05-04T09:30:45.037Z,100176.13
2023-05-04T09:33:13.521Z,100163.84
2023-05-04T09:35:41.823Z,100165.13
2023-05-04T09:38:10.591Z,100163.38
2023-05-04T09:40:44.420Z,100154.94
2023-05-04T09:43:13.783Z,100153.94
2023-05-04T09:45:42.753Z,100159.47
2023-05-04T09:48:29.704Z,100161.63
2023-05-04T09:50:59.815Z,100146.97
2023-05-04T09:53:29.560Z,100151.19
2023-05-04T09:56:13.940Z,100144.19
2023-05-04T09:58:43.664Z,100152.75
2023-05-04T10:01:12.268Z,100144.88
2023-05-04T10:03:40.821Z,100147.59
2023-05-04T10:06:12.483Z,100155.56
2023-05-04T10:08:41.689Z,100137.69
2023-05-04T10:11:10.064Z,100135.81
2023-05-04T10:13:38.650Z,100140.41
2023-05-04T10:16:30.094Z,100135.16
2023-05-04T10:19:22.026Z,100128.34
2023-05-04T10:22:13.990Z,100121.28
2023-05-04T10:25:14.757Z,100121.09
2023-05-04T10:28:11.814Z,100120.53
2023-05-04T10:30:40.732Z,100122.34
2023-05-04T10:33:09.239Z,100119.94
2023-05-04T10:35:38.373Z,100115.63
2023-05-04T10:38:06.805Z,100110.38
2023-05-04T10:40:38.568Z,100115.59
2023-05-04T10:43:08.440Z,100111.88
2023-05-04T10:45:42.428Z,100116.50
2023-05-04T10:48:10.722Z,100113.56
2023-05-04T10:50:51.291Z,100113.38
2023-05-04T10:53:19.692Z,100115.69
2023-05-04T10:55:49.071Z,100123.72
2023-05-04T10:58:28.725Z,100118.25
2023-05-04T11:00:56.781Z,100114.69
2023-05-04T11:03:25.418Z,100112.72
2023-05-04T11:05:55.137Z,100111.69
2023-05-04T11:08:26.859Z,100110.13
2023-05-04T11:11:03.340Z,100104.91
2023-05-04T11:13:32.574Z,100100.59
2023-05-04T11:16:00.826Z,100107.28
2023-05-04T11:18:34.628Z,100101.94
2023-05-04T11:21:03.013Z,100098.56
2023-05-04T11:23:31.629Z,100101.56
2023-05-04T11:25:59.645Z,100098.25
2023-05-04T11:28:37.381Z,100085.50
2023-05-04T11:31:19.048Z,100084.19
2023-05-04T11:33:50.566Z,100088.22
2023-05-04T11:36:18.763Z,100085.19
2023-05-04T11:38:47.382Z,100088.84
2023-05-04T11:41:15.351Z,100081.66
2023-05-04T11:43:45.634Z,100074.88
2023-05-04T11:46:14.575Z,100072.44
2023-05-04T11:48:42.513Z,100069.38
2023-05-04T11:51:10.277Z,100058.75
2023-05-04T11:53:39.672Z,100059.56
2023-05-04T11:56:09.361Z,100065.22
2023-05-04T11:58:37.521Z,100058.72
2023-05-04T12:01:05.501Z,100057.13
2023-05-04T12:03:52.099Z,100063.69
2023-05-04T12:06:32.742Z,100060.56
2023-05-04T12:09:06.461Z,100059.72
2023-05-04T12:11:35.443Z,100058.09
2023-05-04T12:14:11.966Z,100062.66
2023-05-04T12:16:40.436Z,100059.31
2023-05-04T12:19:13.948Z,100058.19
2023-05-04T12:21:54.944Z,100063.81
2023-05-04T12:24:24.225Z,100064.91
2023-05-04T12:26:52.440Z,100062.34
2023-05-04T12:29:20.362Z,100054.50
2023-05-04T12:31:47.953Z,100060.41
2023-05-04T12:34:16.924Z,100061.59
2023-05-04T12:36:44.860Z,100060.03
2023-05-04T12:39:12.579Z,100057.03
2023-05-04T12:41:40.737Z,100056.59
2023-05-04T12:44:09.383Z,100069.91
2023-05-04T12:46:37.723Z,100065.47
2023-05-04T12:49:06.328Z,100065.97
2023-05-04T12:51:33.919Z,100067.91
2023-05-04T12:54:01.310Z,100067.31
2023-05-04T12:56:29.001Z,100070.09
2023-05-04T12:58:56.978Z,100068.19
2023-05-04T13:01:24.453Z,100067.41
2023-05-04T13:03:52.317Z,100060.81
2023-05-04T13:06:20.374Z,100056.31
2023-05-04T13:08:51.556Z,100063.16
2023-05-04T13:11:20.351Z,100056.59
2023-05-04T13:13:48.081Z,100054.66
2023-05-04T13:16:15.549Z,100060.81
2023-05-04T13:18:43.668Z,100060.75
2023-05-04T13:21:11.762Z,100058.78
2023-05-04T13:23:39.813Z,100047.13
2023-05-04T13:26:07.374Z,100057.03
2023-05-04T13:28:36.261Z,100047.88
2023-05-04T13:31:10.000Z,100052.00
2023-05-04T13:33:40.551Z,100047.50
2023-05-04T13:36:08.072Z,100043.50
2023-05-04T13:38:35.791Z,100045.31
2023-05-04T13:41:03.232Z,100054.56
2023-05-04T13:43:31.404Z,100060.38
2023-05-04T13:46:03.763Z,100058.78
2023-05-04T13:48:33.356Z,100061.81
2023-05-04T13:51:04.440Z,100058.59
2023-05-04T13:53:32.514Z,100049.16
2023-05-04T13:55:59.638Z,100047.38
2023-05-04T13:58:27.342Z,100045.28
2023-05-04T14:00:56.604Z,100043.47
2023-05-04T14:03:24.208Z,100053.03
2023-05-04T14:05:53.030Z,100058.31
2023-05-04T14:08:20.611Z,100061.72
2023-05-04T14:10:48.389Z,100062.13
2023-05-04T14:13:16.864Z,100057.53
2023-05-04T14:15:48.207Z,100060.75
2023-05-04T14:18:15.941Z,100064.88
2023-05-04T14:20:43.626Z,100058.66
2023-05-04T14:23:11.134Z,100060.31
2023-05-04T14:25:38.970Z,100060.03
2023-05-04T14:28:06.749Z,100064.50
2023-05-04T14:30:34.630Z,100057.94
2023-05-04T14:33:04.261Z,100061.53
2023-05-04T14:35:31.977Z,100054.38
2023-05-04T14:37:59.598Z,100054.75
2023-05-04T14:40:27.236Z,100055.53
2023-05-04T14:42:54.959Z,100051.22
2023-05-04T14:45:22.964Z,100060.78
2023-05-04T14:47:51.046Z,100066.69
2023-05-04T14:50:18.788Z,100058.34
2023-05-04T14:52:46.274Z,100059.97
2023-05-04T14:55:13.779Z,100061.94
2023-05-04T14:57:42.143Z,100067.59
2023-05-04T15:00:11.818Z,100062.44
2023-05-04T15:02:39.379Z,100073.84
2023-05-04T15:05:07.515Z,100062.81
2023-05-04T15:07:34.824Z,100071.88
2023-05-04T15:10:02.623Z,100071.06
2023-05-04T15:12:30.196Z,100071.53
2023-05-04T15:14:57.467Z,100076.09
2023-05-04T15:17:24.729Z,100073.81
2023-05-04T15:19:52.340Z,100076.22
2023-05-04T15:22:19.794Z,100076.13
2023-05-04T15:24:47.478Z,100088.97
2023-05-04T15:27:15.095Z,100091.44
2023-05-04T15:29:42.261Z,100089.44
2023-05-04T15:32:10.039Z,100086.19
2023-05-04T15:34:37.830Z,100088.25
2023-05-04T15:37:05.536Z,100087.94
2023-05-04T15:39:33.221Z,100095.75
2023-05-04T15:42:00.676Z,100091.66
2023-05-04T15:44:28.778Z,100107.03
2023-05-04T15:46:57.221Z,100094.56
2023-05-04T15:49:25.097Z,100106.34
2023-05-04T15:51:54.202Z,100105.69
2023-05-04T15:54:21.941Z,100119.47
2023-05-04T15:56:50.345Z,100116.34
2023-05-04T15:59:18.574Z,100113.97
2023-05-04T16:01:46.306Z,100119.41
2023-05-04T16:04:15.106Z,100114.91
2023-05-04T16:06:42.953Z,100112.63
2023-05-04T16:09:10.663Z,100110.84
2023-05-04T16:11:38.034Z,100116.00
2023-05-04T16:14:05.730Z,100119.16
2023-05-04T16:16:33.656Z,100118.88
2023-05-04T16:19:01.650Z,100117.41
2023-05-04T16:21:29.474Z,100122.56
2023-05-04T16:23:58.565Z,100121.34
2023-05-04T16:26:26.225Z,100119.69
2023-05-04T16:28:54.935Z,100123.19
2023-05-04T16:31:23.029Z,100121.13
2023-05-04T16:33:50.630Z,100125.28
2023-05-04T16:36:18.325Z,100127.25
2023-05-04T16:38:45.674Z,100129.16
2023-05-04T16:41:13.382Z,100133.78
2023-05-04T16:43:41.080Z,100141.88
2023-05-04T16:46:09.364Z,100139.81
2023-05-04T16:48:38.282Z,100141.59
2023-05-04T16:51:06.096Z,100154.53
2023-05-04T16:53:33.606Z,100155.50
2023-05-04T16:56:01.841Z,100150.78
2023-05-04T16:58:29.269Z,100163.25
2023-05-04T17:00:58.429Z,100159.44
2023-05-04T17:03:25.889Z,100155.34
2023-05-04T17:05:53.792Z,100157.91
2023-05-04T17:08:21.372Z,100163.34
2023-05-04T17:10:48.811Z,100163.50
2023-05-04T17:13:16.392Z,100164.28
2023-05-04T17:15:44.295Z,100162.53
2023-05-04T17:18:11.943Z,100158.13
2023-05-04T17:20:39.585Z,100161.44
2023-05-04T17:23:07.156Z,100172.22
2023-05-04T17:25:34.921Z,100171.97
2023-05-04T17:28:02.504Z,100174.59
2023-05-04T17:30:30.107Z,100172.47
2023-05-04T17:32:57.883Z,100174.75
2023-05-04T17:35:26.905Z,100189.13
2023-05-04T17:37:58.003Z,100192.69
2023-05-04T17:40:28.119Z,100197.03
2023-05-04T17:42:58.862Z,100198.44
2023-05-04T17:45:26.496Z,100195.78
2023-05-04T17:47:54.372Z,100193.13
2023-05-04T17:50:22.745Z,100191.66
2023-05-04T17:52:54.513Z,100189.22
2023-05-04T17:55:27.452Z,100190.19
2023-05-04T17:57:55.038Z,100203.09
2023-05-04T18:00:23.364Z,100200.56
2023-05-04T18:02:51.350Z,100192.19
2023-05-04T18:05:19.430Z,100204.00
2023-05-04T18:07:47.104Z,100204.28
2023-05-04T18:10:14.554Z,100213.06
2023-05-04T18:12:41.964Z,100212.06
2023-05-04T18:15:10.361Z,100223.50
2023-05-04T18:17:41.161Z,100227.56
2023-05-04T18:20:09.521Z,100225.88
2023-05-04T18:22:37.249Z,100229.72
2023-05-04T18:25:05.080Z,100230.91
2023-05-04T18:27:34.024Z,100239.78
2023-05-04T18:30:06.062Z,100239.47
2023-05-04T18:32:33.965Z,100246.00
2023-05-04T18:35:01.704Z,100231.91
2023-05-04T18:37:33.055Z,100236.72
2023-05-04T18:40:01.048Z,100226.19
2023-05-04T18:42:28.985Z,100222.22
2023-05-04T18:44:57.067Z,100222.06
2023-05-04T18:47:25.238Z,100222.00
2023-05-04T18:49:56.515Z,100211.84
2023-05-04T18:52:24.136Z,100214.22
2023-05-04T18:54:51.512Z,100205.56
2023-05-04T18:57:19.368Z,100205.28
2023-05-04T18:59:46.769Z,100192.00
2023-05-04T19:02:14.214Z,100191.72
2023-05-04T19:04:41.792Z,100193.16
2023-05-04T19:07:10.132Z,100185.09
2023-05-04T19:09:38.069Z,100183.00
2023-05-04T19:12:05.795Z,100182.22
2023-05-04T19:14:35.058Z,100183.56
2023-05-04T19:17:02.674Z,100173.34
2023-05-04T19:19:30.449Z,100163.38
2023-05-04T19:21:58.900Z,100164.44
2023-05-04T19:24:26.206Z,100162.56
2023-05-04T19:26:54.445Z,100160.03
2023-05-04T19:29:21.835Z,100167.63
2023-05-04T19:31:49.649Z,100173.03
2023-05-04T19:34:17.688Z,100185.50
2023-05-04T19:36:45.478Z,100184.06
2023-05-04T19:39:13.704Z,100192.28
2023-05-04T19:41:41.377Z,100188.75
2023-05-04T19:44:10.380Z,100196.16
2023-05-04T19:46:38.621Z,100187.47
2023-05-04T19:49:06.185Z,100190.66
2023-05-04T19:51:34.160Z,100197.03
2023-05-04T19:54:02.070Z,100199.34
2023-05-04T19:56:32.790Z,100203.16
2023-05-04T19:59:00.920Z,100206.22
2023-05-04T20:01:28.450Z,100212.94
2023-05-04T20:03:56.438Z,100221.75
2023-05-04T20:06:24.040Z,100233.81
2023-05-04T20:08:51.609Z,100228.22
2023-05-04T20:11:18.950Z,100220.47
2023-05-04T20:13:46.533Z,100217.44
2023-05-04T20:16:14.155Z,100202.22
2023-05-04T20:18:41.965Z,100186.25
2023-05-04T20:21:09.571Z,100181.00
2023-05-04T20:23:37.854Z,100182.88
2023-05-04T20:26:06.125Z,100180.50
2023-05-04T20:28:33.758Z,100176.31
2023-05-04T20:31:01.569Z,100177.31
2023-05-04T20:33:29.188Z,100176.03
2023-05-04T20:35:56.689Z,100174.09
2023-05-04T20:38:24.407Z,100174.75
2023-05-04T20:40:52.746Z,100190.97
2023-05-04T20:43:20.216Z,100189.94
2023-05-04T20:45:48.099Z,100182.28
2023-05-04T20:48:15.531Z,100182.22
2023-05-04T20:50:43.199Z,100176.22
2023-05-04T20:53:10.665Z,100174.53
2023-05-04T20:55:40.716Z,100173.16
2023-05-04T20:58:08.344Z,100163.19
2023-05-04T21:00:36.600Z,100153.34
2023-05-04T21:03:03.984Z,100151.69
2023-05-04T21:05:31.721Z,100141.22
2023-05-04T21:07:59.219Z,100140.44
2023-05-04T21:10:26.870Z,100147.66
2023-05-04T21:12:54.263Z,100159.13
2023-05-04T21:15:21.835Z,100164.63
2023-05-04T21:17:50.187Z,100181.56
2023-05-04T21:20:18.099Z,100187.84
2023-05-04T21:22:45.796Z,100217.09
2023-05-04T21:25:13.376Z,100233.00
2023-05-04T21:27:42.536Z,100246.00
2023-05-04T21:30:11.534Z,100246.50
2023-05-04T21:32:39.013Z,100253.19
2023-05-04T21:35:07.070Z,100247.59
2023-05-04T21:37:34.600Z,100242.00
2023-05-04T21:40:02.407Z,100244.34
2023-05-04T21:42:29.840Z,100240.44
2023-05-04T21:44:58.016Z,100236.63
2023-05-04T21:47:26.835Z,100236.44
2023-05-04T21:49:54.746Z,100225.63
2023-05-04T21:52:23.782Z,100217.44
2023-05-04T21:54:51.562Z,100220.84
2023-05-04T21:57:19.677Z,100215.44
2023-05-04T21:59:50.107Z,100207.56
2023-05-04T22:02:17.633Z,100204.97
2023-05-04T22:04:45.251Z,100212.19
2023-05-04T22:07:12.710Z,100192.16
2023-05-04T22:09:40.947Z,100180.28
2023-05-04T22:12:08.523Z,100179.63
2023-05-04T22:14:35.860Z,100191.41
2023-05-04T22:17:03.666Z,100206.72
2023-05-04T22:19:31.425Z,100209.63
2023-05-04T22:22:01.748Z,100201.03
2023-05-04T22:24:29.825Z,100202.09
2023-05-04T22:26:57.176Z,100193.50
2023-05-04T22:29:24.572Z,100201.47
2023-05-04T22:31:51.874Z,100202.47
2023-05-04T22:34:19.005Z,100192.75
2023-05-04T22:36:46.896Z,100186.41
2023-05-04T22:39:14.821Z,100185.41
2023-05-04T22:41:42.020Z,100179.94
2023-05-04T22:44:09.230Z,100178.91
2023-05-04T22:46:36.741Z,100177.00
2023-05-04T22:49:04.770Z,100172.50
2023-05-04T22:51:32.676Z,100157.38
2023-05-04T22:53:59.865Z,100156.53
2023-05-04T22:56:27.007Z,100160.03
2023-05-04T22:58:54.121Z,100165.41
2023-05-04T23:01:21.553Z,100173.34
2023-05-04T23:03:49.194Z,100173.34
2023-05-04T23:06:16.690Z,100182.34
2023-05-04T23:08:45.583Z,100182.34
2023-05-04T23:11:12.777Z,100181.44
2023-05-04T23:13:39.937Z,100178.75
2023-05-04T23:16:07.819Z,100165.47
2023-05-04T23:21:15.132Z,100162.19
2023-05-04T23:23:42.618Z,100163.13
2023-05-04T23:26:11.761Z,100155.91
2023-05-04T23:28:39.564Z,100152.34
2023-05-04T23:31:07.818Z,100147.41
2023-05-04T23:33:36.559Z,100148.41
2023-05-04T23:36:05.267Z,100150.56
2023-05-04T23:38:33.635Z,100153.78
2023-05-04T23:41:05.605Z,100157.97
2023-05-04T23:43:34.296Z,100154.22
2023-05-04T23:46:04.044Z,100139.03
2023-05-04T23:48:32.846Z,100141.94
2023-05-04T23:51:07.038Z,100155.66
2023-05-04T23:53:35.672Z,100157.28
2023-05-04T23:56:05.094Z,100157.16
2023-05-04T23:58:33.701Z,100154.41
